createdAt,value
2022-10-15T00:02:11.181Z,60.15
2022-10-15T00:04:38.061Z,63.22
2022-10-15T00:07:04.698Z,63.08
2022-10-15T00:09:31.955Z,69.60
2022-10-15T00:11:58.816Z,70.10
2022-10-15T00:14:25.646Z,67.95
2022-10-15T00:16:52.247Z,65.28
2022-10-15T00:19:18.835Z,71.13
2022-10-15T00:21:45.424Z,64.40
2022-10-15T00:24:12.289Z,72.18
2022-10-15T00:26:39.108Z,60.95
2022-10-15T00:29:06.171Z,67.45
2022-10-15T00:31:33.011Z,65.65
2022-10-15T00:34:01.487Z,71.38
2022-10-15T00:36:34.832Z,63.92
2022-10-15T00:39:03.195Z,64.45
2022-10-15T00:41:33.399Z,64.88
2022-10-15T00:44:02.132Z,62.50
2022-10-15T00:46:35.996Z,68.53
2022-10-15T00:49:13.786Z,71.57
2022-10-15T00:51:44.773Z,71.75
2022-10-15T00:54:12.846Z,65.95
2022-10-15T00:56:42.491Z,71.55
2022-10-15T00:59:11.467Z,63.97
2022-10-15T01:01:38.280Z,72.15
2022-10-15T01:04:06.050Z,68.45
2022-10-15T01:06:33.159Z,61.15
2022-10-15T01:09:01.102Z,63.60
2022-10-15T01:11:40.769Z,60.72
2022-10-15T01:14:23.380Z,65.25
2022-10-15T01:16:58.835Z,62.13
2022-10-15T01:19:39.347Z,66.22
2022-10-15T01:22:16.037Z,63.78
2022-10-15T01:25:07.466Z,64.63
2022-10-15T01:27:41.421Z,60.17
2022-10-15T01:30:14.916Z,64.45
2022-10-15T01:33:04.304Z,65.63
2022-10-15T01:35:34.053Z,56.00
2022-10-15T01:38:30.851Z,62.22
2022-10-15T01:41:09.727Z,61.03
2022-10-15T01:43:55.374Z,61.40
2022-10-15T01:46:49.274Z,57.30
2022-10-15T01:49:26.402Z,61.78
2022-10-15T01:51:55.797Z,58.10
2022-10-15T01:54:26.321Z,58.50
2022-10-15T01:56:55.189Z,58.67
2022-10-15T01:59:26.400Z,61.92
2022-10-15T02:01:57.499Z,62.47
2022-10-15T02:04:30.644Z,56.97
2022-10-15T02:07:41.718Z,54.95
2022-10-15T02:10:10.867Z,57.10
2022-10-15T02:12:49.560Z,57.60
2022-10-15T02:15:51.484Z,48.88
2022-10-15T02:18:40.247Z,51.78
2022-10-15T02:21:44.683Z,52.83
2022-10-15T02:24:18.654Z,52.42
2022-10-15T02:26:46.501Z,55.85
2022-10-15T02:29:19.814Z,49.88
2022-10-15T02:31:48.430Z,47.47
2022-10-15T02:34:19.001Z,55.83
2022-10-15T02:36:47.874Z,50.78
2022-10-15T02:39:27.031Z,56.08
2022-10-15T02:41:55.423Z,51.20
2022-10-15T02:44:22.056Z,53.80
2022-10-15T02:46:48.835Z,52.58
2022-10-15T02:49:17.465Z,51.20
2022-10-15T02:51:44.460Z,52.22
2022-10-15T02:54:15.827Z,51.90
2022-10-15T02:56:42.836Z,49.30
2022-10-15T02:59:09.541Z,50.75
2022-10-15T03:01:36.164Z,51.60
2022-10-15T03:04:04.547Z,52.08
2022-10-15T03:06:32.089Z,51.85
2022-10-15T03:08:59.454Z,52.90
2022-10-15T03:11:26.078Z,53.78
2022-10-15T03:13:52.605Z,49.65
2022-10-15T03:16:20.804Z,55.28
2022-10-15T03:18:47.946Z,51.13
2022-10-15T03:21:15.952Z,48.35
2022-10-15T03:23:44.018Z,47.28
2022-10-15T03:26:17.312Z,51.67
2022-10-15T03:28:44.576Z,50.83
2022-10-15T03:31:14.310Z,51.30
2022-10-15T03:33:44.307Z,42.83
2022-10-15T03:36:10.967Z,49.75
2022-10-15T03:38:38.205Z,48.65
2022-10-15T03:41:05.201Z,58.15
2022-10-15T03:43:38.946Z,46.03
2022-10-15T03:46:09.741Z,46.90
2022-10-15T03:48:40.850Z,54.83
2022-10-15T03:51:08.864Z,64.15
2022-10-15T03:53:35.794Z,65.10
2022-10-15T03:56:06.735Z,68.25
2022-10-15T03:58:37.162Z,71.57
2022-10-15T04:01:14.068Z,60.33
2022-10-15T04:03:41.555Z,76.07
2022-10-15T04:06:08.893Z,70.00
2022-10-15T04:08:36.579Z,82.53
2022-10-15T04:11:17.942Z,69.07
2022-10-15T04:13:49.076Z,87.50
2022-10-15T04:16:16.601Z,89.10
2022-10-15T04:18:43.271Z,86.65
2022-10-15T04:21:10.264Z,92.03
2022-10-15T04:23:39.339Z,90.32
2022-10-15T04:26:38.695Z,85.20
2022-10-15T04:29:05.525Z,93.25
2022-10-15T04:31:32.304Z,85.90
2022-10-15T04:34:00.781Z,83.40
2022-10-15T04:36:27.903Z,88.45
2022-10-15T04:39:00.205Z,88.40
2022-10-15T04:41:38.731Z,83.97
2022-10-15T04:44:10.608Z,78.80
2022-10-15T04:46:45.630Z,73.55
2022-10-15T04:49:31.036Z,73.25
2022-10-15T04:51:57.992Z,70.85
2022-10-15T04:54:30.144Z,79.55
2022-10-15T04:57:15.559Z,70.07
2022-10-15T04:59:43.579Z,68.85
2022-10-15T05:02:26.704Z,63.58
2022-10-15T05:04:59.432Z,63.67
2022-10-15T05:07:26.658Z,55.97
2022-10-15T05:09:55.005Z,59.17
2022-10-15T05:12:21.765Z,62.28
2022-10-15T05:14:48.311Z,53.90
2022-10-15T05:17:21.065Z,56.10
2022-10-15T05:19:48.434Z,52.30
2022-10-15T05:22:22.952Z,48.50
2022-10-15T05:24:53.521Z,45.97
2022-10-15T05:27:28.930Z,48.03
2022-10-15T05:29:55.680Z,53.95
2022-10-15T05:32:26.628Z,47.58
2022-10-15T05:34:53.162Z,46.10
2022-10-15T05:37:21.372Z,48.65
2022-10-15T05:39:48.763Z,45.67
2022-10-15T05:42:16.279Z,45.83
2022-10-15T05:44:52.364Z,42.35
2022-10-15T05:47:22.256Z,47.97
2022-10-15T05:49:48.992Z,41.97
2022-10-15T05:52:23.081Z,41.42
2022-10-15T05:55:09.028Z,39.40
2022-10-15T05:57:35.657Z,40.13
2022-10-15T06:00:05.305Z,37.70
2022-10-15T06:02:38.655Z,39.88
2022-10-15T06:05:06.638Z,38.70
2022-10-15T06:07:33.521Z,36.45
2022-10-15T06:10:04.289Z,33.65
2022-10-15T06:12:33.796Z,38.65
2022-10-15T06:15:00.280Z,33.58
2022-10-15T06:17:26.971Z,35.30
2022-10-15T06:19:53.810Z,36.30
2022-10-15T06:22:20.392Z,32.60
2022-10-15T06:24:46.946Z,36.03
2022-10-15T06:27:13.950Z,32.58
2022-10-15T06:29:40.770Z,35.97
2022-10-15T06:32:11.229Z,38.47
2022-10-15T06:34:43.512Z,31.67
2022-10-15T06:37:20.324Z,32.38
2022-10-15T06:39:53.816Z,32.75
2022-10-15T06:42:20.407Z,31.33
2022-10-15T06:44:47.804Z,32.17
2022-10-15T06:47:16.916Z,32.80
2022-10-15T06:49:48.776Z,31.77
2022-10-15T06:52:15.884Z,30.52
2022-10-15T06:54:42.610Z,31.88
2022-10-15T06:57:10.868Z,34.22
2022-10-15T06:59:41.179Z,28.50
2022-10-15T07:02:10.801Z,27.77
2022-10-15T07:04:37.366Z,26.75
2022-10-15T07:07:03.904Z,32.45
2022-10-15T07:09:30.844Z,31.92
2022-10-15T07:11:57.424Z,28.52
2022-10-15T07:14:24.748Z,30.90
2022-10-15T07:16:51.688Z,27.00
2022-10-15T07:19:18.764Z,28.80
2022-10-15T07:21:46.739Z,28.70
2022-10-15T07:24:13.906Z,28.30
2022-10-15T07:26:40.979Z,24.35
2022-10-15T07:29:07.855Z,29.10
2022-10-15T07:31:34.761Z,28.63
2022-10-15T07:34:01.468Z,28.65
2022-10-15T07:36:28.431Z,26.35
2022-10-15T07:38:54.974Z,23.38
2022-10-15T07:41:21.663Z,26.10
2022-10-15T07:43:48.626Z,28.65
2022-10-15T07:46:15.381Z,24.10
2022-10-15T07:48:42.044Z,21.95
2022-10-15T07:51:11.143Z,21.17
2022-10-15T07:53:37.862Z,25.23
2022-10-15T07:56:08.078Z,21.05
2022-10-15T07:58:35.767Z,26.52
2022-10-15T08:01:03.580Z,25.05
2022-10-15T08:03:30.938Z,25.02
2022-10-15T08:06:00.638Z,23.17
2022-10-15T08:08:28.424Z,24.25
2022-10-15T08:10:55.328Z,22.15
2022-10-15T08:13:21.874Z,24.60
2022-10-15T08:15:50.926Z,22.52
2022-10-15T08:18:17.774Z,23.15
2022-10-15T08:20:44.549Z,23.00
2022-10-15T08:23:17.257Z,22.88
2022-10-15T08:25:44.528Z,21.73
2022-10-15T08:28:12.784Z,21.75
2022-10-15T08:30:39.458Z,22.08
2022-10-15T08:33:12.430Z,21.73
2022-10-15T08:35:43.838Z,20.73
2022-10-15T08:38:14.735Z,18.40
2022-10-15T08:40:55.235Z,20.52
2022-10-15T08:43:40.210Z,20.63
2022-10-15T08:46:22.531Z,19.17
2022-10-15T08:48:55.066Z,16.17
2022-10-15T08:51:24.197Z,18.45
2022-10-15T08:53:58.564Z,19.77
2022-10-15T08:56:36.971Z,18.38
2022-10-15T08:59:39.744Z,19.40
2022-10-15T09:02:18.742Z,18.35
2022-10-15T09:05:03.800Z,16.83
2022-10-15T09:07:45.040Z,17.23
2022-10-15T09:10:23.562Z,14.10
2022-10-15T09:12:59.989Z,15.32
2022-10-15T09:15:30.803Z,13.05
2022-10-15T09:17:57.411Z,13.68
2022-10-15T09:20:33.311Z,14.45
2022-10-15T09:23:00.344Z,14.00
2022-10-15T09:25:35.642Z,12.40
2022-10-15T09:28:10.724Z,13.82
2022-10-15T09:30:54.455Z,12.20
2022-10-15T09:33:43.191Z,13.50
2022-10-15T09:36:23.852Z,15.30
2022-10-15T09:39:16.797Z,14.80
2022-10-15T09:41:49.549Z,18.15
2022-10-15T09:44:19.777Z,14.23
2022-10-15T09:46:50.304Z,14.77
2022-10-15T09:49:25.862Z,15.30
2022-10-15T09:52:31.335Z,13.98
2022-10-15T09:55:10.162Z,21.88
2022-10-15T09:57:38.691Z,20.75
2022-10-15T10:00:10.103Z,17.70
2022-10-15T10:02:39.482Z,16.70
2022-10-15T10:05:29.976Z,12.35
2022-10-15T10:08:16.664Z,12.65
2022-10-15T10:10:46.027Z,16.10
2022-10-15T10:13:26.131Z,16.17
2022-10-15T10:15:58.361Z,13.05
2022-10-15T10:18:26.504Z,11.88
2022-10-15T10:21:01.721Z,10.98
2022-10-15T10:23:34.685Z,13.50
2022-10-15T10:26:04.363Z,9.63
2022-10-15T10:28:44.325Z,12.93
2022-10-15T10:31:12.320Z,8.05
2022-10-15T10:33:41.901Z,8.45
2022-10-15T10:36:21.266Z,7.82
2022-10-15T10:39:21.423Z,7.95
2022-10-15T10:41:54.740Z,7.13
2022-10-15T10:44:36.597Z,9.15
2022-10-15T10:47:06.098Z,6.50
2022-10-15T10:49:35.881Z,5.72
2022-10-15T10:52:05.006Z,6.38
2022-10-15T10:54:33.175Z,10.20
2022-10-15T10:57:01.417Z,6.45
2022-10-15T10:59:44.915Z,6.65
2022-10-15T11:02:13.219Z,6.35
2022-10-15T11:04:40.360Z,3.85
2022-10-15T11:07:10.878Z,7.95
2022-10-15T11:10:19.079Z,8.40
2022-10-15T11:15:48.512Z,5.13
2022-10-15T11:18:24.861Z,5.23
2022-10-15T11:21:13.848Z,5.28
2022-10-15T11:23:55.750Z,5.00
2022-10-15T11:26:58.678Z,5.28
2022-10-15T11:30:02.969Z,5.20
2022-10-15T11:33:01.871Z,4.50
2022-10-15T11:35:48.248Z,6.80
2022-10-15T11:38:38.629Z,6.35
2022-10-15T11:41:48.195Z,6.63
2022-10-15T11:44:28.366Z,5.15
2022-10-15T11:47:04.300Z,4.60
2022-10-15T11:50:02.343Z,4.70
2022-10-15T11:52:44.519Z,5.53
2022-10-15T11:55:19.394Z,5.78
2022-10-15T11:57:49.758Z,7.80
2022-10-15T12:00:38.912Z,5.20
2022-10-15T12:03:14.312Z,5.95
2022-10-15T12:05:50.311Z,6.78
2022-10-15T12:08:20.525Z,5.28
2022-10-15T12:11:04.117Z,6.40
2022-10-15T12:13:53.354Z,7.38
2022-10-15T12:16:34.891Z,4.38
2022-10-15T12:19:21.423Z,3.90
2022-10-15T12:21:56.592Z,4.93
2022-10-15T12:24:44.402Z,4.03
2022-10-15T12:27:20.308Z,4.82
2022-10-15T12:29:49.920Z,4.22
2022-10-15T12:32:28.262Z,4.60
2022-10-15T12:35:00.386Z,5.40
2022-10-15T12:37:29.941Z,4.30
2022-10-15T12:40:04.414Z,4.57
2022-10-15T12:42:34.697Z,5.20
2022-10-15T12:45:04.474Z,5.82
2022-10-15T12:47:48.883Z,5.05
2022-10-15T12:50:39.803Z,4.88
2022-10-15T12:53:28.673Z,5.63
2022-10-15T12:56:15.400Z,4.85
2022-10-15T12:58:46.974Z,5.10
2022-10-15T13:01:38.844Z,5.05
2022-10-15T13:04:05.805Z,6.07
2022-10-15T13:06:38.751Z,6.88
2022-10-15T13:09:11.691Z,8.15
2022-10-15T13:11:44.775Z,8.80
2022-10-15T13:14:50.579Z,75.15
2022-10-15T13:17:20.547Z,6.68
2022-10-15T13:20:04.608Z,6.07
2022-10-15T13:22:34.172Z,6.07
2022-10-15T13:25:01.164Z,3.15
2022-10-15T13:27:37.832Z,25.33
2022-10-15T13:30:16.564Z,3.83
2022-10-15T13:35:23.367Z,3.15
2022-10-15T13:37:50.311Z,5.15
2022-10-15T13:40:29.162Z,1.85
2022-10-15T13:43:15.865Z,2.00
2022-10-15T13:45:53.669Z,2.17
2022-10-15T13:48:29.471Z,4.78
2022-10-15T13:51:01.835Z,1.90
2022-10-15T13:53:35.911Z,53.70
2022-10-15T13:56:17.541Z,4.20
2022-10-15T13:58:47.537Z,61.83
2022-10-15T14:01:17.582Z,249.43
2022-10-15T14:03:59.302Z,2.17
2022-10-15T14:06:28.347Z,2.53
2022-10-15T14:09:00.919Z,2.47
2022-10-15T14:11:29.343Z,5.73
2022-10-15T14:13:58.183Z,2.33
2022-10-15T14:16:32.770Z,3.55
2022-10-15T14:19:11.138Z,2.10
2022-10-15T14:21:44.637Z,4.03
2022-10-15T14:24:20.838Z,5.00
2022-10-15T14:26:48.893Z,2.13
2022-10-15T14:29:35.450Z,3.65
2022-10-15T14:32:02.316Z,122.80
2022-10-15T14:34:34.937Z,1.65
2022-10-15T14:37:33.221Z,6.17
2022-10-15T14:40:11.833Z,5.95
2022-10-15T14:42:47.511Z,6.93
2022-10-15T14:45:14.231Z,4.80
2022-10-15T14:47:41.827Z,4.65
2022-10-15T14:50:11.164Z,4.10
2022-10-15T14:52:43.195Z,5.93
2022-10-15T14:55:33.748Z,3.35
2022-10-15T14:58:06.752Z,4.28
2022-10-15T15:00:39.357Z,3.25
2022-10-15T15:03:07.477Z,3.93
2022-10-15T15:05:55.901Z,8.15
2022-10-15T15:08:24.202Z,7.10
2022-10-15T15:10:52.560Z,6.10
2022-10-15T15:13:25.047Z,4.65
2022-10-15T15:15:52.461Z,6.60
2022-10-15T15:18:19.891Z,5.13
2022-10-15T15:20:48.464Z,7.75
2022-10-15T15:23:25.653Z,5.95
2022-10-15T15:25:54.063Z,7.53
2022-10-15T15:28:23.341Z,8.45
2022-10-15T15:31:01.381Z,3.67
2022-10-15T15:33:29.033Z,4.10
2022-10-15T15:36:01.563Z,8.65
2022-10-15T15:38:31.374Z,5.50
2022-10-15T15:41:03.527Z,4.00
2022-10-15T15:43:30.802Z,6.75
2022-10-15T15:45:57.695Z,3.60
2022-10-15T15:48:26.477Z,6.97
2022-10-15T15:50:53.442Z,4.93
2022-10-15T15:53:20.084Z,7.07
2022-10-15T15:55:46.734Z,3.67
2022-10-15T15:58:14.191Z,4.63
2022-10-15T16:00:40.890Z,5.63
2022-10-15T16:03:15.219Z,5.45
2022-10-15T16:05:42.649Z,6.32
2022-10-15T16:08:12.806Z,3.20
2022-10-15T16:10:40.667Z,4.57
2022-10-15T16:13:07.785Z,5.22
2022-10-15T16:15:34.630Z,6.20
2022-10-15T16:18:01.509Z,4.68
2022-10-15T16:20:28.084Z,3.58
2022-10-15T16:22:54.943Z,5.88
2022-10-15T16:25:24.135Z,3.70
2022-10-15T16:27:56.637Z,3.67
2022-10-15T16:30:23.240Z,4.90
2022-10-15T16:32:51.346Z,10.77
2022-10-15T16:35:17.855Z,87.93
2022-10-15T16:37:45.956Z,13.82
2022-10-15T16:40:12.925Z,35.60
2022-10-15T16:42:39.510Z,170.05
2022-10-15T16:45:06.678Z,16.13
2022-10-15T16:47:33.466Z,11.82
2022-10-15T16:50:00.343Z,8.90
2022-10-15T16:52:27.564Z,10.98
2022-10-15T16:54:58.222Z,11.23
2022-10-15T16:57:28.038Z,9.30
2022-10-15T16:59:54.854Z,97.18
2022-10-15T17:02:22.586Z,41.60
2022-10-15T17:04:49.593Z,28.38
2022-10-15T17:07:16.623Z,16.23
2022-10-15T17:09:45.019Z,36.50
2022-10-15T17:12:12.201Z,11.07
2022-10-15T17:14:38.866Z,14.45
2022-10-15T17:17:07.679Z,21.20
2022-10-15T17:19:35.089Z,63.92
2022-10-15T17:22:02.092Z,10.93
2022-10-15T17:24:29.002Z,17.05
2022-10-15T17:26:58.072Z,13.43
2022-10-15T17:29:30.878Z,33.92
2022-10-15T17:32:02.149Z,12.63
2022-10-15T17:34:28.809Z,43.63
2022-10-15T17:36:56.402Z,19.85
2022-10-15T17:39:23.607Z,8.48
2022-10-15T17:41:51.856Z,28.63
2022-10-15T17:44:19.946Z,18.05
2022-10-15T17:46:46.683Z,10.10
2022-10-15T17:49:18.289Z,12.18
2022-10-15T17:51:45.899Z,10.45
2022-10-15T17:54:12.957Z,14.50
2022-10-15T17:56:40.203Z,10.88
2022-10-15T17:59:10.732Z,11.02
2022-10-15T18:04:30.959Z,11.20
2022-10-15T18:06:57.909Z,6.05
2022-10-15T18:09:26.829Z,11.38
2022-10-15T18:11:55.948Z,10.52
2022-10-15T18:14:28.465Z,11.75
2022-10-15T18:16:55.188Z,13.30
2022-10-15T18:19:22.397Z,9.43
2022-10-15T18:21:49.663Z,10.00
2022-10-15T18:24:20.004Z,11.93
2022-10-15T18:26:47.135Z,10.77
2022-10-15T18:29:14.088Z,13.45
2022-10-15T18:31:41.053Z,12.48
2022-10-15T18:34:07.986Z,10.70
2022-10-15T18:36:37.772Z,10.88
2022-10-15T18:39:04.571Z,6.45
2022-10-15T18:41:33.817Z,6.82
2022-10-15T18:44:03.430Z,8.23
2022-10-15T18:46:33.951Z,11.02
2022-10-15T18:49:01.539Z,10.38
2022-10-15T18:51:30.773Z,11.52
2022-10-15T18:53:59.823Z,11.40
2022-10-15T18:56:27.340Z,11.07
2022-10-15T18:58:54.441Z,13.65
2022-10-15T19:01:34.173Z,6.78
2022-10-15T19:04:04.071Z,10.07
2022-10-15T19:06:34.852Z,7.90
2022-10-15T19:09:04.042Z,13.52
2022-10-15T19:11:33.248Z,24.02
2022-10-15T19:14:04.509Z,14.15
2022-10-15T19:16:31.398Z,7.45
2022-10-15T19:19:05.040Z,8.20
2022-10-15T19:21:32.328Z,11.93
2022-10-15T19:23:59.974Z,13.15
2022-10-15T19:26:28.550Z,12.05
2022-10-15T19:28:57.163Z,10.15
2022-10-15T19:31:33.479Z,9.95
2022-10-15T19:34:00.971Z,6.63
2022-10-15T19:36:34.506Z,9.73
2022-10-15T19:39:05.033Z,8.02
2022-10-15T19:41:32.288Z,6.60
2022-10-15T19:43:59.020Z,6.47
2022-10-15T19:46:26.835Z,4.90
2022-10-15T19:48:53.719Z,6.53
2022-10-15T19:51:21.703Z,7.50
2022-10-15T19:53:52.583Z,5.03
2022-10-15T19:56:19.535Z,9.25
2022-10-15T19:58:46.499Z,7.20
2022-10-15T20:01:13.702Z,6.68
2022-10-15T20:03:42.954Z,9.80
2022-10-15T20:06:09.897Z,10.68
2022-10-15T20:08:37.335Z,8.02
2022-10-15T20:11:08.060Z,9.50
2022-10-15T20:13:35.642Z,6.32
2022-10-15T20:16:10.489Z,6.35
2022-10-15T20:18:38.730Z,5.32
2022-10-15T20:21:14.805Z,9.25
2022-10-15T20:23:45.267Z,7.05
2022-10-15T20:26:16.034Z,9.57
2022-10-15T20:28:44.939Z,7.55
2022-10-15T20:31:17.646Z,6.85
2022-10-15T20:33:45.203Z,9.45
2022-10-15T20:36:16.426Z,7.57
2022-10-15T20:38:48.760Z,9.07
2022-10-15T20:41:17.302Z,8.55
2022-10-15T20:43:45.499Z,6.50
2022-10-15T20:46:21.981Z,12.52
2022-10-15T20:48:50.658Z,9.98
2022-10-15T20:51:27.574Z,4.40
2022-10-15T20:53:55.768Z,9.40
2022-10-15T20:56:24.576Z,9.65
2022-10-15T20:58:51.634Z,8.25
2022-10-15T21:01:19.967Z,7.45
2022-10-15T21:03:47.153Z,7.43
2022-10-15T21:06:14.128Z,6.40
2022-10-15T21:08:41.015Z,13.43
2022-10-15T21:11:10.995Z,5.28
2022-10-15T21:13:37.924Z,7.28
2022-10-15T21:16:06.576Z,9.20
2022-10-15T21:18:35.616Z,4.57
2022-10-15T21:21:11.943Z,6.18
2022-10-15T21:23:40.159Z,5.90
2022-10-15T21:26:09.579Z,7.65
2022-10-15T21:28:36.809Z,7.63
2022-10-15T21:31:06.157Z,90.70
2022-10-15T21:33:33.345Z,20.10
2022-10-15T21:36:29.623Z,8.93
2022-10-15T21:38:59.965Z,8.93
2022-10-15T21:41:29.234Z,12.93
2022-10-15T21:43:56.653Z,6.10
2022-10-15T21:46:24.108Z,6.45
2022-10-15T21:48:52.640Z,11.30
2022-10-15T21:51:28.657Z,8.13
2022-10-15T21:53:57.744Z,9.70
2022-10-15T21:56:25.350Z,12.45
2022-10-15T21:58:52.746Z,16.52
2022-10-15T22:01:22.843Z,8.35
2022-10-15T22:03:51.655Z,12.93
2022-10-15T22:06:20.463Z,9.30
2022-10-15T22:08:48.588Z,7.88
2022-10-15T22:11:28.082Z,23.23
2022-10-15T22:13:57.335Z,15.38
2022-10-15T22:16:25.903Z,11.07
2022-10-15T22:18:52.801Z,9.35
2022-10-15T22:21:22.797Z,8.15
2022-10-15T22:23:55.970Z,8.18
2022-10-15T22:26:29.221Z,20.77
2022-10-15T22:29:00.341Z,15.25
2022-10-15T22:31:27.850Z,18.13
2022-10-15T22:33:54.972Z,14.18
2022-10-15T22:36:31.186Z,7.75
2022-10-15T22:39:05.233Z,18.88
2022-10-15T22:41:35.651Z,13.65
2022-10-15T22:44:02.573Z,19.40
2022-10-15T22:46:32.861Z,9.05
2022-10-15T22:49:01.243Z,9.52
2022-10-15T22:51:28.720Z,11.00
2022-10-15T22:53:57.412Z,9.82
2022-10-15T22:56:26.025Z,7.93
2022-10-15T22:58:52.835Z,6.93
2022-10-15T23:01:22.241Z,5.22
2022-10-15T23:03:51.490Z,7.07
2022-10-15T23:06:19.686Z,6.85
2022-10-15T23:08:48.908Z,5.70
2022-10-15T23:11:18.798Z,5.05
2022-10-15T23:13:47.218Z,11.13
2022-10-15T23:16:19.766Z,4.57
2022-10-15T23:18:47.776Z,5.25
2022-10-15T23:21:18.635Z,4.03
2022-10-15T23:23:46.544Z,6.55
2022-10-15T23:26:16.261Z,9.30
2022-10-15T23:28:45.042Z,6.40
2022-10-15T23:31:16.966Z,7.03
2022-10-15T23:33:44.751Z,4.85
2022-10-15T23:36:12.111Z,7.13
2022-10-15T23:38:38.926Z,8.48
2022-10-15T23:41:08.108Z,9.70
2022-10-15T23:43:36.128Z,7.03
2022-10-15T23:46:02.942Z,7.90
2022-10-15T23:48:30.191Z,5.28
2022-10-15T23:51:00.893Z,7.00
2022-10-15T23:53:33.401Z,7.20
2022-10-15T23:56:02.908Z,7.45
2022-10-15T23:58:32.409Z,10.25
